Terminal Aerodrome Forecast
Issued by NWS

Home | Current Version | Previous Version | Text Only | Print | Product List | Glossary On
Versions: 1 2 3 4 5 6 7 8 9 10 11 12 13
000
FTUS45 KVEF 201100
TAFHND
TAF
KHND 201139Z 2012/2112 20010KT P6SM BKN110
     FM202100 09007KT P6SM BKN100
     FM202300 13007KT P6SM VCSH SCT060 BKN100 PROB30 2023/2106 -TSRA
      BKN060CB
     FM210600 13007KT P6SM VCSH SCT050 BKN080 PROB30 2106/2112 -SHRA
      BKN050=

USA.gov is the U.S. government's official web portal to all federal, state and local government web resources and services.